首页
METAR-TAF:

METAR-TAF

机场 :

倫敦城市機場

伦敦, 英格兰

纬度: 51-30N, 经度: 000-03E, 海拔: 5米

当前天气观测

该预报发布于33分钟前的07:50 UTC
风速1节,风向多变
温度 5°C
湿度 93%
气压 1011 hPa
能見度: 6000

METAR: EGLC 170750Z AUTO VRB01KT 6000 NCD 05/04 Q1011

时间: 08:23 (08:23 UTC)

预报

该预报发布于3小时和19分钟前的05:04 UTC
预报有效从17日的 06点(UTC)到 17日的 15点(UTC)
风速3节,风向东北
能見度: 8000
少量云层高于4000英尺
短暂存在
从 17日的 06点(UTC)到 17日的 10点(UTC)
能見度: 4000
轻雾
几率 30%
从 17日的 06点(UTC)到 17日的 09点(UTC)
能見度: 1400
浅雾
成为
从 17日的 07点(UTC)到 17日的 11点(UTC)
能见度10公里或以上

TAF: EGLC 170504Z 1706/1715 04003KT 8000 FEW040 TEMPO 1706/1710 4000 BR PROB30 1706/1709 1400 MIFG BECMG 1707/1711 9999

超过4000个机场的气象观测和天气预报(METAR&TAF报告)。

可查询的气象台以黄色和红色小点在地图上表示。

将鼠标移到小点上方,可查看气象台名称。

然后点击查看天气观测和预报。

如需切换地图:点击带黑十字的绿色按钮放大地图;点击带横线的绿色按钮缩小地图;或者点击绿色箭头查看邻近地区的地图。


METAR-TAF: